Time;durP1;ratioP1;P1;durP2;ratioP2;P2;SDS_P1;SDS_P2;PMS_P1;PMS_P2;Temp;Humidity;BMP_temperature;BMP_pressure;BME280_temperature;BME280_humidity;BME280_pressure;Samples;Min_cycle;Max_cycle;Signal;HPM_P1;HPM_P2
2021/07/29 00:02:20;;;;;;;1.98;0.90;;;22.90;66.30;;;;;;2172749;57;20963;-69
2021/07/29 00:04:47;;;;;;;2.10;1.00;;;22.90;66.30;;;;;;2174205;57;20989;-68
2021/07/29 00:10:54;;;;;;;2.05;0.93;;;22.90;65.50;;;;;;2346089;57;21861;-69
2021/07/29 00:13:21;;;;;;;3.70;1.10;;;22.90;66.40;;;;;;2159462;58;22300;-67
2021/07/29 00:15:49;;;;;;;1.95;0.75;;;22.90;66.50;;;;;;2369137;57;21954;-67
2021/07/29 00:21:24;;;;;;;2.12;0.90;;;22.90;65.90;;;;;;2374440;57;21070;-70
2021/07/29 00:23:50;;;;;;;2.12;0.95;;;22.90;66.80;;;;;;2157418;58;20953;-70
2021/07/29 00:26:33;;;;;;;3.42;1.50;;;22.90;66.80;;;;;;2318319;57;21055;-68
2021/07/29 00:29:02;;;;;;;2.75;1.20;;;22.90;66.10;;;;;;2159726;58;21517;-68
2021/07/29 00:31:30;;;;;;;3.03;1.05;;;22.80;66.80;;;;;;2176407;58;20974;-69
2021/07/29 00:33:57;;;;;;;2.60;1.05;;;22.80;66.80;;;;;;2376505;57;21024;-67
2021/07/29 00:36:26;;;;;;;2.25;1.20;;;22.80;66.90;;;;;;2383745;57;21041;-67
2021/07/29 00:38:52;;;;;;;2.22;1.00;;;22.80;66.90;;;;;;2176277;58;20975;-69
2021/07/29 00:41:21;;;;;;;2.20;1.02;;;22.80;66.90;;;;;;2239911;57;21117;-70
2021/07/29 00:43:56;;;;;;;2.22;1.08;;;22.80;66.80;;;;;;2169899;58;20951;-67
2021/07/29 00:46:23;;;;;;;1.77;0.70;;;22.70;66.80;;;;;;2367664;57;21480;-69
2021/07/29 00:48:51;;;;;;;1.92;0.98;;;22.70;66.80;;;;;;2159067;58;21059;-67
2021/07/29 00:51:18;;;;;;;2.20;1.00;;;22.70;66.90;;;;;;2166944;58;21054;-68
2021/07/29 00:53:44;;;;;;;2.20;1.02;;;22.70;66.90;;;;;;2170585;58;20947;-68
2021/07/29 00:56:39;;;;;;;2.08;1.08;;;22.60;66.80;;;;;;2184271;58;21059;-67
2021/07/29 00:59:05;;;;;;;2.17;1.05;;;22.60;66.00;;;;;;2176042;58;21046;-69
2021/07/29 01:01:54;;;;;;;5.20;1.40;;;22.60;66.90;;;;;;2362416;57;21050;-66
2021/07/29 01:04:23;;;;;;;1.83;0.90;;;22.60;66.30;;;;;;2170465;58;21048;-68
2021/07/29 01:06:49;;;;;;;2.70;1.42;;;22.50;66.90;;;;;;2214798;57;20983;-67
2021/07/29 01:09:15;;;;;;;2.58;1.30;;;22.50;67.00;;;;;;2233849;57;21071;-68
2021/07/29 01:11:43;;;;;;;2.40;1.20;;;22.50;67.10;;;;;;2177403;58;20950;-67
2021/07/29 01:14:11;;;;;;;3.85;1.17;;;22.40;67.10;;;;;;2262266;57;21187;-67
2021/07/29 01:16:38;;;;;;;2.40;1.10;;;22.40;67.10;;;;;;2171737;58;20975;-67
2021/07/29 01:19:05;;;;;;;2.20;1.10;;;22.40;67.20;;;;;;2166892;58;21021;-68
2021/07/29 01:21:40;;;;;;;3.28;1.30;;;22.30;67.20;;;;;;2168169;58;20963;-68
2021/07/29 01:27:37;;;;;;;2.78;1.17;;;22.40;66.90;;;;;;2213892;58;21925;-69
2021/07/29 01:30:04;;;;;;;2.12;0.90;;;22.30;67.30;;;;;;2298755;57;21026;-68
2021/07/29 01:32:31;;;;;;;2.12;1.00;;;22.30;67.30;;;;;;2169229;58;21498;-67
2021/07/29 01:34:58;;;;;;;2.22;1.00;;;22.20;67.30;;;;;;2159433;58;22122;-69
2021/07/29 01:37:25;;;;;;;3.30;1.37;;;22.20;67.30;;;;;;2175005;58;20994;-68
2021/07/29 01:39:55;;;;;;;2.70;1.20;;;22.20;67.30;;;;;;2213952;57;21359;-67
2021/07/29 01:42:21;;;;;;;2.30;1.08;;;22.20;67.30;;;;;;2185813;57;20974;-67
2021/07/29 01:44:49;;;;;;;2.78;1.30;;;22.10;67.30;;;;;;2218329;57;21030;-70
2021/07/29 01:47:15;;;;;;;2.62;1.40;;;22.10;67.20;;;;;;2177937;57;20959;-66
2021/07/29 01:49:41;;;;;;;2.60;1.20;;;22.00;67.20;;;;;;2334455;57;20987;-67
2021/07/29 01:52:10;;;;;;;2.40;1.12;;;22.00;67.20;;;;;;2202876;57;21427;-70
2021/07/29 01:54:36;;;;;;;2.28;1.15;;;21.90;67.10;;;;;;2367818;57;21147;-67
2021/07/29 01:57:22;;;;;;;3.67;1.50;;;21.90;67.10;;;;;;2159491;58;20979;-67
2021/07/29 01:59:49;;;;;;;2.40;1.30;;;21.90;66.60;;;;;;2165660;58;21022;-68
2021/07/29 02:02:16;;;;;;;3.00;1.23;;;21.80;67.10;;;;;;2171917;58;22082;-69
2021/07/29 02:04:44;;;;;;;2.62;1.25;;;21.70;67.20;;;;;;2257094;57;21557;-69
2021/07/29 02:07:10;;;;;;;2.95;1.30;;;21.70;67.30;;;;;;2197961;57;21015;-67
2021/07/29 02:09:58;;;;;;;2.50;1.25;;;21.60;67.30;;;;;;2174334;57;21323;-68
2021/07/29 02:12:26;;;;;;;2.65;1.20;;;21.60;67.00;;;;;;2160407;58;20956;-67
2021/07/29 02:14:54;;;;;;;2.40;1.15;;;21.50;67.40;;;;;;2181653;58;20998;-67
2021/07/29 02:17:23;;;;;;;2.60;1.25;;;21.50;67.50;;;;;;2416051;57;20991;-67
2021/07/29 02:19:50;;;;;;;3.40;1.30;;;21.50;67.70;;;;;;2337408;57;20970;-67
2021/07/29 02:22:16;;;;;;;3.08;1.40;;;21.40;67.70;;;;;;2179212;57;21062;-70
2021/07/29 02:24:42;;;;;;;1.80;0.90;;;21.40;67.90;;;;;;2159135;58;20951;-68
2021/07/29 02:30:37;;;;;;;2.47;1.25;;;21.30;67.70;;;;;;2195705;57;21054;-67
2021/07/29 02:33:04;;;;;;;2.67;1.33;;;21.30;68.10;;;;;;2172964;57;21387;-67
2021/07/29 02:36:07;;;;;;;2.35;1.27;;;21.30;68.10;;;;;;2173845;58;20979;-67
2021/07/29 02:38:36;;;;;;;2.05;1.00;;;21.30;67.80;;;;;;2192142;57;21099;-69
2021/07/29 02:41:03;;;;;;;2.25;0.98;;;21.30;68.20;;;;;;2159602;58;20984;-67
2021/07/29 02:43:30;;;;;;;2.55;1.00;;;21.30;68.30;;;;;;2159386;58;22023;-67
2021/07/29 02:45:57;;;;;;;2.25;1.10;;;21.20;68.20;;;;;;2367440;57;21005;-67
2021/07/29 02:48:38;;;;;;;2.42;1.23;;;21.20;68.20;;;;;;2371966;57;20996;-69
2021/07/29 02:51:05;;;;;;;3.72;1.27;;;21.20;67.80;;;;;;2368776;57;21824;-70
2021/07/29 02:53:34;;;;;;;2.55;1.17;;;21.20;68.20;;;;;;2384693;57;21103;-67
2021/07/29 02:56:01;;;;;;;2.75;1.25;;;21.10;68.20;;;;;;2171027;58;20978;-67
2021/07/29 02:58:29;;;;;;;2.87;0.93;;;21.10;68.30;;;;;;2367060;57;20999;-68
2021/07/29 03:00:55;;;;;;;2.75;1.40;;;21.10;68.30;;;;;;2187283;57;21032;-67
2021/07/29 03:03:23;;;;;;;3.20;1.42;;;21.00;68.20;;;;;;2190667;57;22451;-66
2021/07/29 03:05:50;;;;;;;2.80;1.10;;;21.00;68.30;;;;;;2375989;57;21027;-67
2021/07/29 03:08:16;;;;;;;2.33;1.10;;;21.00;68.30;;;;;;2197831;57;21051;-67
2021/07/29 03:10:46;;;;;;;3.30;1.27;;;20.90;68.30;;;;;;2379884;57;20970;-68
2021/07/29 03:13:13;;;;;;;2.83;1.20;;;20.90;68.20;;;;;;2159452;58;21996;-68
2021/07/29 03:15:39;;;;;;;2.95;1.30;;;20.90;68.50;;;;;;2178324;58;20942;-68
2021/07/29 03:18:07;;;;;;;1.98;1.15;;;20.90;68.60;;;;;;2170003;58;21266;-66
2021/07/29 03:20:33;;;;;;;2.42;1.15;;;20.90;68.70;;;;;;2166599;58;21019;-68
2021/07/29 03:23:00;;;;;;;3.20;1.48;;;20.80;68.70;;;;;;2195830;57;1689565;-67
2021/07/29 03:25:39;;;;;;;2.87;1.05;;;20.80;68.80;;;;;;2177819;57;20982;-67
2021/07/29 03:28:05;;;;;;;2.80;1.30;;;20.90;68.90;;;;;;2199150;57;21387;-67
2021/07/29 03:30:59;;;;;;;3.22;1.42;;;20.90;69.20;;;;;;2162470;58;21905;-68
2021/07/29 03:33:25;;;;;;;3.00;1.70;;;20.90;68.80;;;;;;2175517;58;20959;-68
2021/07/29 03:36:16;;;;;;;4.05;1.27;;;20.90;69.50;;;;;;2201884;57;20970;-69
2021/07/29 03:38:44;;;;;;;3.05;1.40;;;21.00;69.20;;;;;;2165691;58;21098;-66
2021/07/29 03:44:40;;;;;;;3.45;1.55;;;21.10;69.30;;;;;;2348300;57;21025;-68
2021/07/29 03:47:09;;;;;;;4.03;1.60;;;21.10;69.80;;;;;;2195209;57;20940;-68
2021/07/29 03:49:37;;;;;;;3.10;1.42;;;21.20;69.90;;;;;;2379894;57;21889;-66
2021/07/29 03:52:04;;;;;;;3.58;1.90;;;21.20;69.80;;;;;;2380531;57;21082;-67
2021/07/29 03:54:49;;;;;;;2.58;1.45;;;21.30;69.90;;;;;;2172279;58;20963;-67
2021/07/29 03:57:15;;;;;;;3.25;1.60;;;21.40;69.40;;;;;;2261460;58;21026;-68
2021/07/29 03:59:41;;;;;;;4.05;1.90;;;21.40;69.90;;;;;;2178165;58;21063;-66
2021/07/29 04:02:10;;;;;;;3.03;1.50;;;21.40;69.80;;;;;;2187027;57;21902;-68
2021/07/29 04:04:38;;;;;;;2.90;1.52;;;21.50;69.90;;;;;;2188192;57;20943;-67
2021/07/29 04:07:04;;;;;;;2.75;1.40;;;21.50;69.70;;;;;;2177821;58;20962;-67
2021/07/29 04:09:31;;;;;;;3.30;1.67;;;21.60;69.80;;;;;;2178110;58;21034;-68
2021/07/29 04:11:58;;;;;;;2.70;1.52;;;21.60;69.60;;;;;;2191848;57;22295;-67
2021/07/29 04:14:24;;;;;;;2.80;1.62;;;21.70;69.70;;;;;;2185447;57;21078;-70
2021/07/29 04:16:58;;;;;;;2.90;1.52;;;21.70;69.50;;;;;;2159028;58;20939;-66
2021/07/29 04:19:25;;;;;;;3.42;1.65;;;21.70;68.90;;;;;;2167780;58;20986;-68
2021/07/29 04:21:52;;;;;;;3.65;2.15;;;21.80;69.30;;;;;;2177794;58;21010;-67
2021/07/29 04:24:19;;;;;;;2.75;1.55;;;21.80;69.20;;;;;;2170162;58;21531;-67
2021/07/29 04:26:46;;;;;;;3.03;1.60;;;21.80;69.10;;;;;;2158445;58;20975;-69
2021/07/29 04:29:12;;;;;;;2.97;1.37;;;21.90;69.00;;;;;;2173541;58;21944;-68
2021/07/29 04:31:40;;;;;;;3.75;1.77;;;21.90;68.90;;;;;;2191987;57;21072;-67
2021/07/29 04:34:06;;;;;;;3.35;1.45;;;21.90;68.90;;;;;;2191712;57;21298;-68
2021/07/29 04:36:40;;;;;;;2.90;1.60;;;22.00;68.90;;;;;;2173909;58;21973;-66
2021/07/29 04:39:16;;;;;;;2.80;1.40;;;22.00;68.70;;;;;;2173531;58;21018;-67
2021/07/29 04:41:45;;;;;;;3.45;1.40;;;22.00;69.20;;;;;;2177521;58;21921;-68
2021/07/29 04:44:13;;;;;;;2.47;1.30;;;22.00;68.90;;;;;;2172078;58;21048;-67
2021/07/29 04:46:41;;;;;;;2.60;1.27;;;22.10;68.90;;;;;;2160388;58;21095;-67
2021/07/29 04:49:09;;;;;;;3.78;1.27;;;22.10;68.90;;;;;;2245081;57;21026;-67
2021/07/29 04:51:36;;;;;;;2.65;1.35;;;22.10;68.80;;;;;;2168867;58;21059;-67
2021/07/29 04:54:02;;;;;;;2.50;1.23;;;22.10;68.70;;;;;;2188253;57;21008;-70
2021/07/29 04:56:30;;;;;;;2.62;1.30;;;22.10;68.80;;;;;;2188506;57;20999;-67
2021/07/29 04:58:56;;;;;;;2.87;1.37;;;22.20;68.80;;;;;;2349916;57;22126;-67
2021/07/29 05:01:23;;;;;;;2.58;1.17;;;22.10;68.60;;;;;;2166380;58;21059;-68
2021/07/29 05:03:50;;;;;;;4.28;1.40;;;22.10;68.60;;;;;;2387945;57;21104;-68
2021/07/29 05:06:51;;;;;;;2.58;1.40;;;22.20;68.70;;;;;;2183376;58;21291;-67
2021/07/29 05:09:18;;;;;;;3.33;1.40;;;22.20;68.10;;;;;;2196378;57;21059;-68
2021/07/29 05:11:45;;;;;;;2.70;1.45;;;22.10;68.60;;;;;;2276468;57;20975;-68
2021/07/29 05:14:11;;;;;;;3.67;1.50;;;22.20;68.70;;;;;;2168566;58;21052;-70
2021/07/29 05:16:38;;;;;;;3.53;1.50;;;22.20;68.70;;;;;;2172062;58;21055;-69
2021/07/29 05:19:04;;;;;;;4.75;1.65;;;22.20;68.80;;;;;;2195072;57;21191;-69
2021/07/29 05:21:31;;;;;;;4.93;1.87;;;22.20;68.80;;;;;;2320640;57;21971;-70
2021/07/29 05:23:57;;;;;;;3.45;1.75;;;22.20;68.90;;;;;;2165506;58;21851;-70
2021/07/29 05:26:24;;;;;;;3.62;1.60;;;22.20;68.80;;;;;;2181694;58;21673;-71
2021/07/29 05:28:51;;;;;;;5.40;1.95;;;22.20;69.00;;;;;;2218166;57;21002;-67
2021/07/29 05:31:18;;;;;;;3.87;1.80;;;22.20;69.00;;;;;;2174012;57;20980;-67
2021/07/29 05:33:44;;;;;;;3.45;1.70;;;22.20;69.00;;;;;;2172192;57;20991;-68
2021/07/29 05:36:29;;;;;;;2.72;1.40;;;22.20;69.10;;;;;;2178173;58;22078;-67
2021/07/29 05:38:57;;;;;;;2.25;1.10;;;22.30;68.80;;;;;;2158911;58;20983;-67
2021/07/29 05:41:23;;;;;;;3.00;1.35;;;22.30;69.40;;;;;;2159306;58;20968;-68
2021/07/29 05:43:50;;;;;;;4.68;1.70;;;22.20;69.20;;;;;;2198605;57;21087;-68
2021/07/29 05:46:16;;;;;;;3.00;1.40;;;22.30;69.20;;;;;;2176722;58;21535;-69
2021/07/29 05:48:43;;;;;;;3.05;1.62;;;22.30;69.20;;;;;;2171833;58;20943;-68
2021/07/29 05:51:09;;;;;;;3.33;1.50;;;22.40;69.20;;;;;;2186064;58;21485;-69
2021/07/29 05:53:39;;;;;;;3.10;1.40;;;22.40;69.20;;;;;;2167063;58;20966;-68
2021/07/29 05:56:05;;;;;;;4.03;1.50;;;22.40;69.30;;;;;;2382934;57;21080;-70
2021/07/29 05:58:31;;;;;;;2.90;1.50;;;22.40;69.10;;;;;;2167603;58;21072;-69
2021/07/29 06:00:57;;;;;;;3.25;1.80;;;22.40;69.00;;;;;;2390592;57;21007;-68
2021/07/29 06:03:24;;;;;;;3.53;1.70;;;22.40;69.00;;;;;;2268301;57;21047;-67
2021/07/29 06:05:55;;;;;;;3.35;1.90;;;22.50;69.10;;;;;;2376985;57;20972;-67
2021/07/29 06:08:21;;;;;;;3.30;1.80;;;22.50;68.90;;;;;;2185047;58;21047;-67
2021/07/29 06:17:58;;;;;;;2.95;1.52;;;22.50;68.00;;;;;;2380165;57;20999;-70
2021/07/29 06:20:25;;;;;;;2.90;1.50;;;22.50;68.90;;;;;;2392739;57;21031;-68
2021/07/29 06:22:51;;;;;;;3.60;2.00;;;22.50;68.90;;;;;;2181306;58;21683;-68
2021/07/29 06:25:18;;;;;;;3.10;1.62;;;22.50;68.90;;;;;;2181028;58;20979;-69
2021/07/29 06:27:47;;;;;;;5.60;1.80;;;22.60;69.20;;;;;;2190104;57;20998;-69
2021/07/29 06:30:13;;;;;;;3.90;2.12;;;22.50;69.10;;;;;;2264452;57;21833;-70
2021/07/29 06:32:41;;;;;;;3.37;1.85;;;22.60;68.80;;;;;;2223517;57;21301;-70
2021/07/29 06:35:08;;;;;;;2.95;1.62;;;22.60;68.90;;;;;;2333387;57;20963;-68
2021/07/29 06:37:34;;;;;;;3.58;1.80;;;22.60;68.90;;;;;;2167913;58;20955;-68
2021/07/29 06:40:01;;;;;;;4.57;2.10;;;22.60;68.60;;;;;;2193470;58;20978;-69
2021/07/29 06:42:28;;;;;;;3.55;1.92;;;22.70;68.90;;;;;;2180624;57;20987;-69
2021/07/29 06:44:56;;;;;;;3.97;1.98;;;22.70;68.70;;;;;;2184993;58;21091;-68
2021/07/29 06:47:24;;;;;;;3.40;1.90;;;22.70;68.60;;;;;;2177595;58;20987;-69
2021/07/29 06:49:53;;;;;;;4.43;2.03;;;22.70;68.50;;;;;;2172039;58;21081;-68
2021/07/29 06:52:19;;;;;;;3.60;1.80;;;22.70;67.80;;;;;;2186892;58;21064;-67
2021/07/29 06:54:45;;;;;;;3.22;1.67;;;22.70;67.60;;;;;;2167469;58;20951;-68
2021/07/29 06:57:12;;;;;;;3.47;1.70;;;22.80;67.80;;;;;;2167610;58;20987;-67
2021/07/29 06:59:40;;;;;;;4.68;1.83;;;22.80;67.90;;;;;;2176182;58;21036;-68
2021/07/29 07:02:09;;;;;;;2.58;1.20;;;22.80;68.00;;;;;;2167536;58;21138;-67
2021/07/29 07:04:36;;;;;;;2.62;1.48;;;22.80;68.30;;;;;;2189178;57;20966;-68
2021/07/29 07:07:17;;;;;;;3.10;1.73;;;22.90;68.50;;;;;;2171940;57;21000;-69
2021/07/29 07:09:45;;;;;;;2.53;1.40;;;22.90;67.70;;;;;;2185009;58;20962;-67
2021/07/29 07:12:11;;;;;;;3.47;1.33;;;23.00;68.70;;;;;;2171187;58;21015;-68
2021/07/29 07:14:37;;;;;;;2.78;1.33;;;23.00;68.70;;;;;;2171483;58;20995;-68
2021/07/29 07:20:31;;;;;;;3.17;1.70;;;23.20;67.10;;;;;;2166136;58;21002;-67
2021/07/29 07:22:58;;;;;;;2.53;1.33;;;23.30;68.20;;;;;;2184321;58;20966;-70
2021/07/29 07:25:24;;;;;;;2.65;1.30;;;23.30;68.40;;;;;;2188560;57;21020;-70
2021/07/29 07:27:50;;;;;;;3.37;1.42;;;23.40;68.50;;;;;;2172054;58;21008;-67
2021/07/29 07:30:37;;;;;;;3.15;1.62;;;23.50;68.50;;;;;;2190187;57;21046;-70
2021/07/29 07:33:04;;;;;;;3.50;1.70;;;23.70;67.30;;;;;;2180364;57;21059;-67
2021/07/29 07:35:30;;;;;;;2.60;1.33;;;23.80;68.70;;;;;;2384875;57;20959;-68
2021/07/29 07:38:24;;;;;;;2.90;1.30;;;24.00;68.50;;;;;;2190282;57;20954;-68
2021/07/29 07:40:51;;;;;;;2.62;1.30;;;24.10;67.00;;;;;;2171600;58;20951;-67
2021/07/29 07:44:07;;;;;;;3.33;1.48;;;24.20;68.10;;;;;;2187360;58;21011;-68
2021/07/29 07:46:34;;;;;;;4.18;1.73;;;24.30;66.10;;;;;;2170660;58;20980;-71
2021/07/29 07:49:00;;;;;;;4.70;1.90;;;24.40;67.00;;;;;;2185155;58;21022;-69
2021/07/29 07:51:28;;;;;;;3.47;1.83;;;24.40;66.40;;;;;;2227478;57;21528;-69
2021/07/29 07:53:55;;;;;;;3.78;1.52;;;24.40;66.20;;;;;;2269023;57;21568;-69
2021/07/29 07:56:22;;;;;;;3.50;1.73;;;24.50;66.10;;;;;;2179345;58;21047;-70
2021/07/29 07:58:48;;;;;;;3.50;1.65;;;24.50;66.10;;;;;;2189557;57;21015;-69
2021/07/29 08:01:15;;;;;;;3.33;1.62;;;24.50;65.60;;;;;;2191945;58;21008;-70
2021/07/29 08:03:41;;;;;;;4.10;1.60;;;24.50;65.40;;;;;;2212898;57;20976;-71
2021/07/29 08:06:13;;;;;;;3.60;1.67;;;24.60;65.50;;;;;;2410980;57;21077;-70
2021/07/29 08:08:39;;;;;;;3.47;1.70;;;24.60;65.10;;;;;;2186765;57;20964;-73
2021/07/29 08:11:06;;;;;;;4.22;1.70;;;24.60;64.90;;;;;;2167663;58;20952;-68
2021/07/29 08:13:32;;;;;;;3.20;1.80;;;24.60;64.90;;;;;;2167688;58;20975;-68
2021/07/29 08:15:59;;;;;;;2.78;1.60;;;24.60;65.00;;;;;;2167402;58;20984;-71
2021/07/29 08:18:53;;;;;;;3.30;1.33;;;24.60;65.00;;;;;;2192051;57;20995;-68
2021/07/29 08:21:45;;;;;;;3.47;1.60;;;24.70;64.00;;;;;;2197471;57;21024;-71
2021/07/29 08:24:12;;;;;;;3.10;1.60;;;24.70;63.10;;;;;;2190479;57;21012;-69
2021/07/29 08:26:38;;;;;;;3.45;1.90;;;24.70;64.80;;;;;;2166603;58;21043;-70
2021/07/29 08:29:04;;;;;;;4.05;1.52;;;24.80;64.90;;;;;;2174859;57;20981;-69
2021/07/29 08:31:31;;;;;;;3.75;1.75;;;24.80;64.80;;;;;;2183265;57;20968;-68
2021/07/29 08:34:00;;;;;;;3.03;1.50;;;24.80;64.70;;;;;;2203444;57;21858;-69
2021/07/29 08:36:27;;;;;;;3.85;1.73;;;24.80;64.80;;;;;;2197299;57;21469;-69
2021/07/29 08:38:53;;;;;;;3.03;1.58;;;24.90;64.90;;;;;;2205056;57;21789;-68
2021/07/29 08:41:19;;;;;;;2.67;1.45;;;24.90;64.90;;;;;;2207437;57;20992;-70
2021/07/29 08:43:46;;;;;;;4.03;1.62;;;25.00;64.80;;;;;;2207201;57;21574;-69
2021/07/29 08:46:18;;;;;;;3.80;1.60;;;25.00;64.60;;;;;;2217396;57;21031;-70
2021/07/29 08:49:36;;;;;;;2.92;1.65;;;25.10;64.60;;;;;;2216696;57;21007;-69
2021/07/29 08:52:03;;;;;;;3.17;1.62;;;25.10;62.80;;;;;;2184604;57;20912;-72
2021/07/29 08:54:31;;;;;;;4.00;1.85;;;25.20;64.40;;;;;;2396112;56;20964;-70
2021/07/29 08:57:01;;;;;;;3.47;1.87;;;25.20;63.60;;;;;;2183726;57;20948;-70
2021/07/29 08:59:27;;;;;;;4.55;1.58;;;25.30;63.10;;;;;;2259914;56;21596;-71
2021/07/29 09:01:56;;;;;;;3.58;1.60;;;25.30;63.80;;;;;;2191535;58;21068;-69
2021/07/29 09:04:24;;;;;;;3.78;1.80;;;25.30;63.80;;;;;;2199809;57;21035;-69
2021/07/29 09:07:02;;;;;;;4.05;1.83;;;25.40;63.50;;;;;;2208883;57;21276;-68
2021/07/29 09:09:42;;;;;;;3.22;1.60;;;25.40;63.10;;;;;;2215500;57;20998;-70
2021/07/29 09:12:41;;;;;;;3.20;1.80;;;25.50;63.20;;;;;;2213861;57;20999;-68
2021/07/29 09:15:17;;;;;;;3.90;1.73;;;25.60;62.20;;;;;;2404277;56;21496;-71
2021/07/29 09:17:45;;;;;;;3.70;1.70;;;25.60;62.80;;;;;;2221516;57;21042;-69
2021/07/29 09:20:18;;;;;;;3.05;1.67;;;25.60;63.40;;;;;;2234920;57;20989;-70
2021/07/29 09:22:44;;;;;;;3.37;1.65;;;25.70;62.70;;;;;;2223121;57;20966;-71
2021/07/29 09:25:42;;;;;;;3.08;1.50;;;25.70;63.40;;;;;;2219778;57;21435;-67
2021/07/29 09:28:08;;;;;;;2.78;1.40;;;25.80;61.70;;;;;;2186424;57;20960;-69
2021/07/29 09:30:35;;;;;;;2.50;1.30;;;25.80;63.30;;;;;;2184252;57;20956;-69
2021/07/29 09:33:17;;;;;;;3.30;1.77;;;25.80;63.10;;;;;;2191347;57;21095;-70
2021/07/29 09:35:52;;;;;;;3.55;1.95;;;25.90;61.00;;;;;;2198892;57;21058;-68
2021/07/29 09:38:26;;;;;;;3.75;1.60;;;25.90;61.10;;;;;;2213592;57;21124;-68
2021/07/29 09:40:56;;;;;;;3.37;1.80;;;25.90;61.10;;;;;;2204298;57;20979;-69
2021/07/29 09:43:44;;;;;;;3.75;1.92;;;25.90;61.70;;;;;;2425290;56;21045;-68
2021/07/29 09:46:17;;;;;;;7.87;2.10;;;25.90;60.00;;;;;;2183010;57;21637;-70
2021/07/29 09:48:44;;;;;;;4.65;2.15;;;25.90;61.20;;;;;;2221405;57;21880;-69
2021/07/29 09:51:11;;;;;;;3.58;1.98;;;25.90;61.50;;;;;;2254735;57;20995;-71
2021/07/29 09:53:38;;;;;;;3.28;1.67;;;26.00;61.70;;;;;;2225182;57;21011;-69
2021/07/29 09:56:11;;;;;;;3.05;1.50;;;26.00;61.70;;;;;;2197901;57;20955;-70
2021/07/29 09:59:01;;;;;;;3.25;1.70;;;26.10;61.10;;;;;;2210062;57;21014;-70
2021/07/29 10:04:56;;;;;;;2.80;1.40;;;26.20;59.90;;;;;;2436950;56;21023;-69
2021/07/29 10:07:40;;;;;;;4.05;1.65;;;26.20;61.50;;;;;;2196097;57;20905;-68
2021/07/29 10:10:08;;;;;;;4.28;1.50;;;26.20;59.90;;;;;;2188882;57;21494;-68
2021/07/29 10:12:35;;;;;;;3.17;1.90;;;26.10;61.10;;;;;;2431876;56;20994;-67
2021/07/29 10:15:13;;;;;;;3.10;1.62;;;26.00;60.70;;;;;;2194377;57;21331;-70
2021/07/29 10:18:03;;;;;;;3.37;1.40;;;26.10;59.50;;;;;;2387013;57;21479;-72
2021/07/29 10:20:32;;;;;;;4.03;1.62;;;26.00;59.50;;;;;;2201752;57;21839;-69
2021/07/29 10:26:31;;;;;;;3.55;1.90;;;26.00;61.00;;;;;;2411244;56;21374;-70
2021/07/29 10:29:23;;;;;;;3.00;1.50;;;26.10;60.80;;;;;;2192609;57;21099;-70
2021/07/29 10:31:53;;;;;;;3.12;1.40;;;26.10;60.00;;;;;;2205948;57;20999;-69
2021/07/29 10:34:24;;;;;;;2.40;1.27;;;26.10;61.30;;;;;;2293298;56;20995;-69
2021/07/29 10:36:50;;;;;;;3.30;1.80;;;26.10;60.90;;;;;;2310193;56;20961;-69
2021/07/29 10:39:17;;;;;;;2.95;1.70;;;26.10;61.30;;;;;;2189242;61;21124;-71
2021/07/29 10:41:47;;;;;;;3.97;1.77;;;26.10;61.40;;;;;;2411392;56;20977;-70
2021/07/29 10:52:54;;;;;;;3.42;1.80;;;26.20;61.30;;;;;;2356270;56;21024;-68
2021/07/29 10:55:22;;;;;;;2.70;1.40;;;26.40;61.60;;;;;;2349524;56;21078;-69
2021/07/29 10:57:57;;;;;;;3.30;1.65;;;26.40;62.10;;;;;;2219599;57;21649;-68
2021/07/29 11:00:24;;;;;;;6.10;1.90;;;26.50;60.30;;;;;;2216115;57;21023;-69
2021/07/29 11:02:52;;;;;;;3.80;2.08;;;26.50;61.50;;;;;;2417636;56;20985;-72
2021/07/29 11:05:21;;;;;;;3.60;2.00;;;26.50;61.00;;;;;;2413722;56;21098;-71
2021/07/29 11:07:48;;;;;;;4.45;2.00;;;26.60;60.50;;;;;;2186659;57;21771;-68
2021/07/29 11:10:16;;;;;;;3.47;1.87;;;26.70;60.50;;;;;;2260493;56;21723;-71
2021/07/29 11:12:57;;;;;;;3.90;1.92;;;26.70;60.70;;;;;;2428903;56;20985;-69
2021/07/29 11:15:24;;;;;;;3.08;1.73;;;26.80;59.60;;;;;;2385525;57;20967;-71
2021/07/29 11:17:53;;;;;;;4.47;2.30;;;26.90;61.00;;;;;;2220928;57;20985;-71
2021/07/29 11:20:27;;;;;;;3.65;2.00;;;27.00;60.30;;;;;;2270815;56;21544;-69
2021/07/29 11:23:45;;;;;;;3.17;1.85;;;27.10;59.50;;;;;;2326293;57;21003;-68
2021/07/29 11:26:11;;;;;;;2.72;1.48;;;27.20;58.60;;;;;;2200585;57;20995;-72
2021/07/29 11:28:42;;;;;;;3.10;1.77;;;27.30;60.10;;;;;;2218150;57;21552;-71
2021/07/29 11:31:17;;;;;;;3.28;1.67;;;27.40;59.20;;;;;;2254071;56;21518;-69
2021/07/29 11:34:26;;;;;;;3.22;1.60;;;27.40;59.10;;;;;;2215133;57;20967;-69
2021/07/29 11:36:53;;;;;;;4.62;1.75;;;27.50;57.30;;;;;;2397610;56;21044;-70
2021/07/29 11:39:20;;;;;;;3.90;1.95;;;27.50;58.80;;;;;;2398714;56;20981;-72
2021/07/29 11:41:56;;;;;;;3.30;1.83;;;27.50;58.50;;;;;;2398753;56;20976;-71
2021/07/29 11:47:37;;;;;;;3.12;1.70;;;27.60;57.40;;;;;;2189084;57;20932;-70
2021/07/29 11:50:06;;;;;;;2.78;1.37;;;27.70;57.90;;;;;;2213187;57;21043;-71
2021/07/29 11:52:33;;;;;;;3.35;1.65;;;27.70;58.90;;;;;;2200614;57;21094;-69
2021/07/29 11:55:09;;;;;;;3.55;1.77;;;27.70;58.40;;;;;;2398803;56;20964;-70
2021/07/29 11:57:37;;;;;;;3.87;1.70;;;27.70;56.70;;;;;;2212699;57;20970;-69
2021/07/29 12:00:05;;;;;;;3.83;1.60;;;27.70;57.90;;;;;;2196762;56;21044;-69
2021/07/29 12:02:34;;;;;;;3.25;1.50;;;27.70;57.70;;;;;;2323333;56;21457;-69
2021/07/29 12:05:03;;;;;;;3.30;1.48;;;27.70;57.80;;;;;;2368083;57;20979;-69
2021/07/29 12:07:32;;;;;;;3.42;1.73;;;27.70;57.50;;;;;;2185817;57;20952;-70
2021/07/29 12:09:59;;;;;;;3.03;1.70;;;27.70;57.60;;;;;;2222428;57;21571;-72
2021/07/29 12:12:25;;;;;;;3.53;1.65;;;27.70;57.60;;;;;;2201247;57;20956;-69
2021/07/29 12:15:05;;;;;;;3.58;1.87;;;27.80;57.60;;;;;;2193535;57;21072;-69
2021/07/29 12:17:32;;;;;;;3.05;1.73;;;27.90;56.50;;;;;;2188831;57;20969;-70
2021/07/29 12:20:05;;;;;;;3.28;1.75;;;27.90;57.20;;;;;;2262048;56;20974;-70
2021/07/29 12:22:34;;;;;;;3.28;1.60;;;27.90;57.20;;;;;;2186707;57;21548;-71
2021/07/29 12:25:02;;;;;;;3.37;1.52;;;28.00;57.10;;;;;;2435509;56;20993;-70
2021/07/29 12:27:47;;;;;;;3.47;1.67;;;28.00;56.90;;;;;;2203473;57;20969;-70
2021/07/29 12:37:02;;;;;;;2.72;1.40;;;28.00;55.60;;;;;;2185622;57;20937;-72
2021/07/29 12:39:34;;;;;;;2.62;1.20;;;28.20;56.90;;;;;;2263834;56;21046;-71
2021/07/29 12:42:30;;;;;;;2.90;1.50;;;28.20;57.00;;;;;;2189070;57;20980;-70
2021/07/29 12:45:17;;;;;;;3.00;1.35;;;28.20;56.10;;;;;;2218747;57;21025;-72
2021/07/29 12:48:07;;;;;;;5.07;1.60;;;28.20;56.30;;;;;;2233447;56;21064;-69
2021/07/29 12:50:39;;;;;;;3.87;1.90;;;28.30;55.40;;;;;;2356362;56;21870;-69
2021/07/29 12:53:13;;;;;;;2.90;1.65;;;28.30;56.50;;;;;;2193524;57;21485;-71
2021/07/29 12:55:40;;;;;;;2.75;1.42;;;28.40;56.90;;;;;;2268346;57;21032;-70
2021/07/29 12:58:09;;;;;;;2.60;1.40;;;28.40;57.00;;;;;;2214342;57;21059;-71
2021/07/29 13:00:38;;;;;;;2.87;1.40;;;28.50;57.20;;;;;;2196525;57;21963;-71
2021/07/29 13:03:19;;;;;;;5.90;1.80;;;28.50;57.00;;;;;;2196896;57;21876;-70
2021/07/29 13:05:45;;;;;;;4.82;1.98;;;28.60;55.00;;;;;;2208825;57;21039;-69
2021/07/29 13:08:12;;;;;;;2.75;1.48;;;28.60;56.60;;;;;;2185944;57;20953;-72
2021/07/29 13:10:43;;;;;;;2.53;1.15;;;28.70;56.30;;;;;;2205685;57;21039;-69
2021/07/29 13:13:31;;;;;;;3.17;1.87;;;28.70;56.10;;;;;;2217478;57;21091;-70
2021/07/29 13:15:58;;;;;;;3.30;1.75;;;28.90;55.20;;;;;;2194328;57;20949;-69
2021/07/29 13:18:24;;;;;;;3.10;1.67;;;28.90;56.50;;;;;;2431504;56;21034;-70
2021/07/29 13:21:09;;;;;;;4.40;1.83;;;29.00;56.30;;;;;;2214101;57;20999;-70
2021/07/29 13:23:35;;;;;;;3.75;1.33;;;29.10;53.70;;;;;;2198223;57;21861;-71
2021/07/29 13:26:05;;;;;;;2.78;1.50;;;29.10;55.60;;;;;;2216467;57;21109;-71
2021/07/29 13:28:32;;;;;;;2.78;1.70;;;29.10;55.20;;;;;;2225820;57;20956;-71
2021/07/29 13:31:03;;;;;;;3.00;1.55;;;29.20;55.40;;;;;;2246644;56;20984;-71
2021/07/29 13:33:29;;;;;;;3.40;2.05;;;29.20;55.90;;;;;;2215160;57;21984;-70
2021/07/29 13:35:56;;;;;;;3.62;1.92;;;29.20;54.00;;;;;;2221385;57;21066;-70
2021/07/29 13:38:22;;;;;;;3.60;2.00;;;29.20;53.70;;;;;;2196288;57;20936;-70
2021/07/29 13:40:50;;;;;;;3.00;1.73;;;29.20;53.50;;;;;;2241604;57;21019;-71
2021/07/29 13:43:16;;;;;;;3.40;2.10;;;29.20;53.10;;;;;;2220914;57;21007;-71
2021/07/29 13:45:45;;;;;;;3.70;1.80;;;29.30;53.30;;;;;;2389917;56;21130;-69
2021/07/29 13:48:11;;;;;;;3.03;1.58;;;29.30;54.40;;;;;;2392323;56;21004;-69
2021/07/29 13:50:40;;;;;;;3.25;1.95;;;29.30;54.20;;;;;;2203284;57;20984;-69
2021/07/29 13:53:07;;;;;;;3.30;1.70;;;29.30;53.30;;;;;;2209770;57;20998;-69
2021/07/29 13:55:33;;;;;;;3.45;1.65;;;29.40;53.90;;;;;;2209523;57;21040;-72
2021/07/29 13:58:00;;;;;;;3.10;1.90;;;29.40;54.40;;;;;;2213500;57;20983;-70
2021/07/29 14:00:27;;;;;;;4.05;1.50;;;29.40;54.30;;;;;;2281926;56;21043;-71